Time;durP1;ratioP1;P1;durP2;ratioP2;P2;SDS_P1;SDS_P2;PMS_P1;PMS_P2;Temp;Humidity;BMP_temperature;BMP_pressure;BME280_temperature;BME280_humidity;BME280_pressure;Samples;Min_cycle;Max_cycle;Signal;HPM_P1;HPM_P2
2023/05/25 00:00:52;;;;;;;7.63;2.15;;;;;;;;;;5052314;28;20041;-66
2023/05/25 00:03:19;;;;;;;7.18;2.50;;;20.30;82.00;;;;;;5053047;28;20045;-64
2023/05/25 00:05:44;;;;;;;6.97;2.50;;;20.30;81.90;;;;;;5047969;28;20368;-62
2023/05/25 00:08:10;;;;;;;7.07;2.20;;;20.20;81.90;;;;;;5045792;28;20044;-63
2023/05/25 00:10:36;;;;;;;7.93;2.60;;;20.30;81.90;;;;;;5051860;28;20051;-63
2023/05/25 00:13:02;;;;;;;8.80;2.70;;;;;;;;;;5050878;28;20045;-63
2023/05/25 00:15:28;;;;;;;6.82;2.50;;;20.00;81.70;;;;;;5064946;28;20136;-66
2023/05/25 00:17:54;;;;;;;5.57;2.40;;;20.10;81.80;;;;;;5073370;28;20530;-64
2023/05/25 00:20:19;;;;;;;6.85;2.47;;;20.20;81.90;;;;;;5073944;28;20127;-66
2023/05/25 00:22:45;;;;;;;8.23;2.47;;;20.20;81.90;;;;;;5069149;28;20048;-64
2023/05/25 00:25:11;;;;;;;6.20;2.50;;;20.20;81.90;;;;;;5053890;28;20083;-64
2023/05/25 00:27:37;;;;;;;7.15;2.40;;;20.40;82.00;;;;;;5062753;28;20029;-64
2023/05/25 00:30:03;;;;;;;5.78;2.28;;;20.10;81.80;;;;;;5037624;28;20052;-66
2023/05/25 00:32:29;;;;;;;7.13;2.45;;;20.20;81.80;;;;;;5073176;28;20040;-65
2023/05/25 00:34:54;;;;;;;7.10;2.17;;;20.30;81.90;;;;;;5073536;28;20109;-63
2023/05/25 00:37:20;;;;;;;5.60;2.30;;;20.20;81.80;;;;;;5073109;28;20040;-65
2023/05/25 00:39:46;;;;;;;5.68;2.50;;;20.10;81.60;;;;;;5068506;28;20041;-65
2023/05/25 00:42:12;;;;;;;5.90;2.45;;;20.20;81.70;;;;;;5055507;28;20149;-63
2023/05/25 00:44:38;;;;;;;5.53;2.30;;;20.20;81.70;;;;;;5073331;28;20032;-65
2023/05/25 00:47:04;;;;;;;5.13;2.10;;;20.20;81.60;;;;;;5072134;28;20044;-62
2023/05/25 00:49:33;;;;;;;5.22;2.13;;;20.20;81.60;;;;;;5065733;28;20056;-63
2023/05/25 00:51:59;;;;;;;5.63;2.30;;;;;;;;;;5052700;28;20050;-67
2023/05/25 00:54:26;;;;;;;7.18;2.42;;;20.00;78.10;;;;;;5053320;28;20174;-66
2023/05/25 00:56:58;;;;;;;5.70;2.20;;;19.90;81.50;;;;;;5054395;28;20048;-67
2023/05/25 00:59:34;;;;;;;6.10;2.13;;;20.00;76.90;;;;;;5072400;28;20048;-67
2023/05/25 01:02:07;;;;;;;7.00;2.30;;;20.30;81.60;;;;;;5069234;28;20037;-68
2023/05/25 01:04:34;;;;;;;5.95;2.17;;;20.20;81.60;;;;;;5053623;28;20045;-67
2023/05/25 01:07:00;;;;;;;5.75;2.35;;;20.00;81.40;;;;;;5071278;28;20044;-67
2023/05/25 01:09:26;;;;;;;6.03;2.40;;;20.20;81.60;;;;;;5035368;28;20468;-67
2023/05/25 01:11:52;;;;;;;6.88;2.67;;;20.30;79.40;;;;;;5048926;28;20044;-67
2023/05/25 01:14:19;;;;;;;6.88;2.53;;;20.10;81.50;;;;;;5070062;28;20056;-68
2023/05/25 01:16:45;;;;;;;5.28;2.25;;;20.20;80.10;;;;;;5071985;28;20375;-67
2023/05/25 01:19:10;;;;;;;9.30;2.83;;;20.00;81.40;;;;;;5037957;28;20044;-67
2023/05/25 01:21:46;;;;;;;6.10;2.17;;;20.10;81.40;;;;;;5071207;28;20044;-67
2023/05/25 01:24:41;;;;;;;6.07;2.60;;;19.90;81.30;;;;;;5039383;28;20117;-67
2023/05/25 01:27:23;;;;;;;6.15;2.55;;;20.20;81.50;;;;;;5043471;28;20084;-67
2023/05/25 01:29:49;;;;;;;8.43;2.65;;;19.90;81.40;;;;;;5035179;28;20112;-67
2023/05/25 01:32:16;;;;;;;7.00;2.45;;;20.00;78.20;;;;;;5050688;28;20581;-67
2023/05/25 01:34:42;;;;;;;5.30;2.40;;;20.10;81.40;;;;;;5054629;28;20116;-67
2023/05/25 01:37:08;;;;;;;7.78;2.53;;;;;;;;;;5072852;28;20079;-67
2023/05/25 01:39:34;;;;;;;5.22;2.17;;;20.00;78.80;;;;;;5054923;28;20064;-68
2023/05/25 01:42:00;;;;;;;6.45;2.40;;;19.90;81.40;;;;;;5071290;28;20036;-64
2023/05/25 01:44:26;;;;;;;5.55;2.33;;;20.10;79.50;;;;;;5072766;28;20041;-64
2023/05/25 01:47:07;;;;;;;7.13;2.70;;;20.00;81.60;;;;;;5054902;28;20036;-65
2023/05/25 01:49:51;;;;;;;6.40;2.55;;;19.90;81.40;;;;;;5055411;28;20067;-66
2023/05/25 01:52:27;;;;;;;5.28;2.10;;;20.00;81.40;;;;;;5069198;28;20051;-66
2023/05/25 01:55:20;;;;;;;6.32;2.70;;;19.90;81.40;;;;;;5071729;28;20045;-64
2023/05/25 01:57:49;;;;;;;6.38;2.38;;;20.00;78.20;;;;;;5056483;28;20075;-65
2023/05/25 02:00:16;;;;;;;8.18;2.35;;;19.60;81.20;;;;;;5052999;28;20391;-66
2023/05/25 02:02:43;;;;;;;6.20;2.17;;;19.80;81.30;;;;;;5048404;28;20037;-65
2023/05/25 02:05:10;;;;;;;6.38;2.30;;;20.00;81.30;;;;;;5029897;28;20033;-63
2023/05/25 02:07:36;;;;;;;6.13;2.58;;;20.00;81.30;;;;;;5041692;28;20106;-65
2023/05/25 02:10:02;;;;;;;9.00;3.05;;;;;;;;;;5035446;28;20049;-67
2023/05/25 02:12:28;;;;;;;6.70;2.63;;;19.60;81.10;;;;;;5070816;28;20079;-67
2023/05/25 02:14:54;;;;;;;8.35;3.03;;;19.60;81.10;;;;;;5046121;28;20555;-68
2023/05/25 02:17:19;;;;;;;7.70;2.63;;;19.80;81.10;;;;;;5044247;28;20746;-66
2023/05/25 02:19:47;;;;;;;9.15;2.63;;;19.90;81.20;;;;;;5042798;28;20053;-63
2023/05/25 02:22:13;;;;;;;6.70;2.17;;;19.90;81.20;;;;;;5033990;28;20406;-65
2023/05/25 02:24:39;;;;;;;6.28;2.30;;;19.60;81.00;;;;;;5046239;28;20040;-63
2023/05/25 02:27:05;;;;;;;5.10;2.17;;;20.10;81.40;;;;;;5015180;28;20045;-66
2023/05/25 02:29:31;;;;;;;6.80;2.70;;;19.90;81.20;;;;;;5039587;28;20041;-63
2023/05/25 02:31:57;;;;;;;8.77;2.50;;;20.10;81.30;;;;;;5033517;28;20034;-64
2023/05/25 02:34:23;;;;;;;6.43;2.38;;;20.00;81.20;;;;;;5049974;28;20045;-62
2023/05/25 02:36:49;;;;;;;6.68;2.00;;;19.90;81.20;;;;;;5033845;28;20054;-61
2023/05/25 02:39:15;;;;;;;6.45;2.30;;;20.00;81.30;;;;;;5013252;28;20057;-63
2023/05/25 02:41:41;;;;;;;8.30;2.40;;;19.80;81.10;;;;;;5043819;28;20041;-63
2023/05/25 02:44:07;;;;;;;5.80;2.30;;;19.90;81.10;;;;;;5033044;28;20132;-62
2023/05/25 02:46:33;;;;;;;8.70;2.50;;;19.90;81.10;;;;;;5036501;28;20073;-66
2023/05/25 02:48:59;;;;;;;7.85;2.72;;;19.60;78.90;;;;;;5034492;28;20037;-63
2023/05/25 02:51:25;;;;;;;6.05;2.47;;;19.60;81.00;;;;;;5033115;28;20041;-66
2023/05/25 02:53:51;;;;;;;6.82;2.50;;;19.80;81.20;;;;;;5046412;28;20390;-66
2023/05/25 02:56:17;;;;;;;6.25;2.47;;;19.50;78.00;;;;;;5037508;28;20041;-64
2023/05/25 02:58:43;;;;;;;6.43;2.30;;;19.70;78.80;;;;;;5031725;28;20037;-65
2023/05/25 03:01:09;;;;;;;5.70;2.33;;;19.80;81.20;;;;;;5038368;28;20072;-65
2023/05/25 03:03:36;;;;;;;6.15;2.35;;;19.60;81.10;;;;;;5053658;28;20118;-64
2023/05/25 03:06:03;;;;;;;6.35;2.40;;;19.40;80.90;;;;;;5053916;28;20076;-65
2023/05/25 03:08:29;;;;;;;5.55;2.22;;;19.40;81.00;;;;;;5045246;28;20549;-65
2023/05/25 03:10:55;;;;;;;5.65;2.63;;;19.70;78.30;;;;;;5048083;28;20047;-63
2023/05/25 03:13:21;;;;;;;6.10;2.45;;;19.80;81.20;;;;;;5039104;28;20128;-66
2023/05/25 03:15:47;;;;;;;6.60;2.58;;;;;;;;;;5065998;28;20098;-64
2023/05/25 03:18:13;;;;;;;5.47;2.55;;;19.60;81.10;;;;;;5074217;28;20506;-65
2023/05/25 03:20:42;;;;;;;7.05;2.63;;;19.60;81.00;;;;;;5068645;28;20083;-62
2023/05/25 03:23:08;;;;;;;6.38;2.20;;;19.60;81.10;;;;;;5073997;28;20127;-64
2023/05/25 03:25:34;;;;;;;5.35;2.33;;;19.60;80.70;;;;;;5074657;28;20124;-64
2023/05/25 03:28:00;;;;;;;5.75;2.35;;;;;;;;;;5074474;28;20036;-65
2023/05/25 03:30:26;;;;;;;5.75;2.67;;;19.40;80.90;;;;;;5073980;28;20440;-64
2023/05/25 03:32:52;;;;;;;7.93;2.95;;;19.80;81.20;;;;;;5069578;28;20032;-66
2023/05/25 03:35:18;;;;;;;8.93;2.53;;;;;;;;;;5053815;28;20450;-64
2023/05/25 03:37:44;;;;;;;6.45;2.78;;;19.80;81.30;;;;;;5072845;28;20076;-67
2023/05/25 03:40:10;;;;;;;4.95;2.38;;;19.80;81.30;;;;;;5064999;28;20087;-67
2023/05/25 03:42:36;;;;;;;5.35;2.25;;;19.80;81.30;;;;;;5072697;28;20041;-66
2023/05/25 03:45:02;;;;;;;5.93;2.42;;;19.60;81.20;;;;;;5074354;28;20040;-67
2023/05/25 03:47:28;;;;;;;7.60;2.67;;;;;;;;;;5074166;28;20123;-67
2023/05/25 03:49:54;;;;;;;7.28;2.42;;;19.50;81.20;;;;;;5072083;28;20099;-67
2023/05/25 03:52:20;;;;;;;5.13;2.25;;;19.50;81.20;;;;;;5074440;28;20087;-67
2023/05/25 03:54:46;;;;;;;6.00;2.63;;;19.70;78.10;;;;;;5074071;28;20047;-67
2023/05/25 03:57:11;;;;;;;6.60;2.88;;;19.70;81.30;;;;;;5058432;28;20045;-67
2023/05/25 03:59:37;;;;;;;6.38;2.50;;;19.80;81.00;;;;;;5070454;28;20051;-68
2023/05/25 04:02:03;;;;;;;5.95;2.53;;;19.80;81.30;;;;;;5066660;28;20056;-68
2023/05/25 04:04:29;;;;;;;7.75;2.67;;;19.70;81.20;;;;;;5073516;28;20123;-68
2023/05/25 04:06:54;;;;;;;6.95;2.55;;;19.90;81.30;;;;;;5074156;28;20194;-68
2023/05/25 04:09:20;;;;;;;6.22;2.13;;;19.80;81.20;;;;;;5071141;28;20123;-68
2023/05/25 04:11:46;;;;;;;7.88;2.85;;;;;;;;;;5068361;28;20655;-68
2023/05/25 04:14:12;;;;;;;7.03;2.70;;;19.80;81.20;;;;;;5072192;28;20048;-68
2023/05/25 04:16:40;;;;;;;6.43;2.50;;;20.00;81.30;;;;;;5072044;28;20044;-68
2023/05/25 04:19:06;;;;;;;6.00;2.30;;;20.00;81.30;;;;;;5073833;28;20139;-69
2023/05/25 04:21:32;;;;;;;6.90;2.55;;;;;;;;;;5054085;28;20371;-69
2023/05/25 04:23:58;;;;;;;6.05;2.85;;;;;;;;;;5073117;28;20033;-67
2023/05/25 04:26:25;;;;;;;7.22;2.50;;;;;;;;;;5070417;28;20182;-67
2023/05/25 04:28:53;;;;;;;6.85;2.42;;;19.90;81.10;;;;;;5055181;28;20098;-69
2023/05/25 04:31:19;;;;;;;6.22;2.42;;;19.80;81.10;;;;;;5072978;28;20447;-69
2023/05/25 04:33:45;;;;;;;5.75;2.53;;;;;;;;;;5068374;28;20037;-68
2023/05/25 04:36:13;;;;;;;6.32;2.80;;;20.00;78.50;;;;;;5052007;28;20608;-68
2023/05/25 04:38:40;;;;;;;9.73;2.72;;;20.00;81.10;;;;;;5070463;28;20045;-68
2023/05/25 04:41:06;;;;;;;6.07;2.38;;;20.20;81.20;;;;;;5070730;28;20498;-69
2023/05/25 04:43:33;;;;;;;7.90;2.75;;;;;;;;;;5072776;28;20449;-67
2023/05/25 04:45:59;;;;;;;6.40;2.55;;;20.00;81.10;;;;;;5071966;28;20123;-68
2023/05/25 04:48:28;;;;;;;6.88;2.50;;;;;;;;;;5069823;28;20127;-68
2023/05/25 04:50:57;;;;;;;6.80;2.67;;;20.10;81.30;;;;;;5072639;28;20047;-68
2023/05/25 04:53:22;;;;;;;8.10;2.35;;;19.90;81.30;;;;;;5070813;28;20190;-67
2023/05/25 04:55:48;;;;;;;6.97;2.25;;;20.20;79.80;;;;;;5071891;28;20115;-62
2023/05/25 04:58:14;;;;;;;8.13;2.42;;;20.40;81.50;;;;;;5054373;28;20375;-62
2023/05/25 05:00:40;;;;;;;6.95;2.40;;;20.50;81.50;;;;;;5066517;28;20036;-66
2023/05/25 05:03:06;;;;;;;6.30;2.33;;;20.50;81.30;;;;;;5055427;28;20094;-66
2023/05/25 05:05:33;;;;;;;8.38;2.58;;;20.70;81.30;;;;;;5073210;28;20067;-66
2023/05/25 05:08:00;;;;;;;8.98;2.80;;;20.80;81.20;;;;;;5054622;28;20363;-66
2023/05/25 05:10:25;;;;;;;5.50;2.30;;;20.70;79.80;;;;;;5069998;28;20045;-62
2023/05/25 05:12:51;;;;;;;7.00;2.80;;;20.70;80.90;;;;;;5060613;28;20394;-62
2023/05/25 05:15:17;;;;;;;6.28;2.45;;;;;;;;;;5060358;28;20195;-62
2023/05/25 05:17:43;;;;;;;7.80;2.60;;;21.00;80.80;;;;;;5070595;28;20056;-62
2023/05/25 05:20:09;;;;;;;5.95;2.45;;;;;;;;;;5072634;28;20448;-62
2023/05/25 05:22:36;;;;;;;6.88;2.75;;;20.90;80.50;;;;;;5067391;28;20048;-64
2023/05/25 05:25:02;;;;;;;6.68;2.50;;;21.30;80.70;;;;;;5071510;28;20051;-64
2023/05/25 05:27:28;;;;;;;6.10;2.25;;;21.00;80.40;;;;;;5052473;28;20044;-65
2023/05/25 05:29:54;;;;;;;7.97;2.65;;;21.30;80.60;;;;;;5068981;28;20038;-64
2023/05/25 05:32:19;;;;;;;8.48;2.55;;;21.20;76.40;;;;;;5071613;28;20497;-66
2023/05/25 05:34:46;;;;;;;8.73;2.85;;;;;;;;;;5052988;28;20379;-66
2023/05/25 05:37:11;;;;;;;7.50;2.60;;;21.20;80.40;;;;;;5070624;28;20051;-66
2023/05/25 05:39:37;;;;;;;5.57;2.20;;;21.30;80.50;;;;;;5070318;28;20041;-62
2023/05/25 05:42:04;;;;;;;7.25;2.38;;;21.40;80.60;;;;;;5057298;28;20123;-62
2023/05/25 05:44:30;;;;;;;6.53;2.35;;;;;;;;;;5069676;28;20516;-67
2023/05/25 05:46:59;;;;;;;7.28;2.67;;;21.40;80.70;;;;;;5069709;28;20052;-66
2023/05/25 05:49:31;;;;;;;6.20;2.30;;;21.20;80.60;;;;;;5071682;28;20275;-62
2023/05/25 05:51:57;;;;;;;7.15;2.47;;;21.40;80.60;;;;;;5071681;28;20049;-63
2023/05/25 05:54:22;;;;;;;7.00;2.58;;;21.40;80.60;;;;;;5068802;28;20049;-62
2023/05/25 05:56:49;;;;;;;6.57;2.63;;;;;;;;;;5068464;28;20063;-63
2023/05/25 05:59:15;;;;;;;6.85;2.53;;;21.60;80.50;;;;;;5071035;28;20139;-62
2023/05/25 06:01:41;;;;;;;6.40;2.65;;;;;;;;;;5070836;28;20128;-65
2023/05/25 06:04:07;;;;;;;6.93;2.40;;;21.60;80.20;;;;;;5071684;28;20094;-66
2023/05/25 06:06:33;;;;;;;6.05;2.22;;;;;;;;;;5072214;28;20447;-63
2023/05/25 06:09:05;;;;;;;9.35;2.67;;;21.40;77.70;;;;;;5058485;28;20050;-63
2023/05/25 06:11:34;;;;;;;5.45;2.25;;;22.00;76.80;;;;;;5069479;28;20127;-67
2023/05/25 06:14:00;;;;;;;6.15;2.38;;;22.00;80.30;;;;;;5070601;28;20044;-66
2023/05/25 06:16:25;;;;;;;7.10;2.45;;;21.80;80.10;;;;;;5065895;28;20053;-66
2023/05/25 06:18:51;;;;;;;7.32;2.47;;;21.90;76.90;;;;;;5051994;28;20136;-66
2023/05/25 06:21:17;;;;;;;7.30;2.42;;;21.80;80.00;;;;;;5069420;28;20106;-66
2023/05/25 06:23:43;;;;;;;7.75;2.30;;;;;;;;;;5070895;28;20400;-66
2023/05/25 06:26:09;;;;;;;9.35;2.70;;;22.00;80.10;;;;;;5060805;28;20048;-67
2023/05/25 06:28:35;;;;;;;8.52;2.42;;;22.00;80.00;;;;;;5057310;28;20049;-68
2023/05/25 06:31:01;;;;;;;6.25;2.35;;;22.10;80.10;;;;;;5070936;28;20410;-66
2023/05/25 06:33:26;;;;;;;7.40;2.60;;;22.00;79.90;;;;;;5051669;28;20083;-63
2023/05/25 06:35:55;;;;;;;7.05;2.65;;;22.40;78.30;;;;;;5073785;28;20048;-69
2023/05/25 06:38:21;;;;;;;8.40;2.05;;;22.20;79.80;;;;;;5074266;28;20044;-70
2023/05/25 06:40:47;;;;;;;8.00;2.55;;;;;;;;;;5073791;28;20052;-67
2023/05/25 06:43:13;;;;;;;6.43;2.40;;;;;;;;;;5073577;28;20093;-63
2023/05/25 06:45:39;;;;;;;9.38;2.72;;;22.40;79.50;;;;;;5056895;28;20049;-69
2023/05/25 06:48:05;;;;;;;7.03;2.47;;;22.50;79.60;;;;;;5074734;28;20067;-66
2023/05/25 06:50:31;;;;;;;7.07;2.45;;;22.20;79.50;;;;;;5074949;28;20029;-62
2023/05/25 06:52:56;;;;;;;8.32;2.67;;;22.40;79.60;;;;;;5072872;28;20048;-63
2023/05/25 06:55:22;;;;;;;7.82;2.63;;;22.50;77.10;;;;;;5075014;28;20046;-69
2023/05/25 06:57:48;;;;;;;6.95;2.30;;;22.50;76.50;;;;;;5067462;28;20049;-64
2023/05/25 07:00:15;;;;;;;7.80;2.50;;;22.50;80.00;;;;;;5071704;28;20056;-63
2023/05/25 07:02:41;;;;;;;8.80;3.13;;;22.60;79.90;;;;;;5075665;28;20048;-65
2023/05/25 07:05:07;;;;;;;8.65;2.45;;;;;;;;;;5073665;28;20070;-69
2023/05/25 07:07:33;;;;;;;7.95;2.85;;;22.60;79.60;;;;;;5073928;28;20032;-62
2023/05/25 07:09:58;;;;;;;8.45;2.53;;;23.00;78.60;;;;;;5075491;28;20067;-63
2023/05/25 07:12:24;;;;;;;6.88;2.50;;;22.70;79.40;;;;;;5066203;28;20112;-63
2023/05/25 07:14:50;;;;;;;7.38;2.58;;;22.70;79.30;;;;;;5074253;28;20056;-61
2023/05/25 07:17:16;;;;;;;8.50;2.97;;;22.90;79.20;;;;;;5052124;28;20044;-68
2023/05/25 07:19:42;;;;;;;9.50;2.90;;;23.00;79.10;;;;;;5074201;28;20186;-66
2023/05/25 07:22:11;;;;;;;9.38;3.00;;;;;;;;;;5055164;28;20055;-68
2023/05/25 07:24:37;;;;;;;9.23;2.85;;;23.30;79.00;;;;;;5056102;28;20044;-69
2023/05/25 07:27:03;;;;;;;8.63;2.63;;;23.20;78.80;;;;;;5054543;28;20040;-67
2023/05/25 07:29:29;;;;;;;8.60;3.00;;;23.30;78.70;;;;;;5069728;28;20059;-66
2023/05/25 07:31:55;;;;;;;8.82;2.88;;;23.40;78.70;;;;;;5072229;28;20498;-70
2023/05/25 07:34:20;;;;;;;9.30;2.63;;;23.60;78.60;;;;;;5070501;28;20120;-65
2023/05/25 07:36:46;;;;;;;7.40;2.58;;;23.40;78.40;;;;;;5068829;28;20458;-64
2023/05/25 07:39:12;;;;;;;7.65;3.03;;;23.40;76.90;;;;;;5045110;28;20563;-68
2023/05/25 07:41:38;;;;;;;7.97;2.92;;;23.80;78.30;;;;;;5048779;28;20060;-64
2023/05/25 07:44:04;;;;;;;9.00;2.95;;;23.80;78.30;;;;;;5036522;28;20070;-63
2023/05/25 07:46:30;;;;;;;7.72;3.00;;;;;;;;;;5037745;28;20056;-63
2023/05/25 07:48:58;;;;;;;8.13;2.40;;;23.90;78.10;;;;;;5054508;28;20037;-63
2023/05/25 07:51:27;;;;;;;8.05;3.00;;;23.90;77.90;;;;;;5054394;28;20048;-62
2023/05/25 07:53:54;;;;;;;7.20;2.72;;;24.00;77.80;;;;;;5054354;28;20041;-63
2023/05/25 07:56:20;;;;;;;10.30;2.90;;;23.90;77.80;;;;;;5057283;28;20490;-66
2023/05/25 07:58:45;;;;;;;9.30;3.33;;;24.10;76.10;;;;;;5063078;28;20055;-65
2023/05/25 08:01:11;;;;;;;10.57;3.45;;;24.20;77.70;;;;;;5073734;28;20128;-69
2023/05/25 08:03:37;;;;;;;10.00;2.92;;;24.30;77.60;;;;;;5036507;28;20146;-62
2023/05/25 08:06:03;;;;;;;11.63;4.13;;;;;;;;;;5054836;28;20036;-69
2023/05/25 08:08:29;;;;;;;16.02;4.35;;;24.10;76.80;;;;;;5055425;28;20037;-67
2023/05/25 08:10:54;;;;;;;13.40;3.83;;;23.90;76.60;;;;;;5054325;28;20384;-62
2023/05/25 08:13:20;;;;;;;11.02;3.92;;;24.30;74.10;;;;;;5066688;28;20047;-69
2023/05/25 08:15:48;;;;;;;12.65;3.97;;;24.20;76.60;;;;;;5071466;28;20511;-69
2023/05/25 08:18:14;;;;;;;15.48;4.35;;;23.90;75.80;;;;;;5070043;28;20044;-66
2023/05/25 08:20:40;;;;;;;15.35;4.25;;;24.20;76.40;;;;;;5058787;28;20124;-67
2023/05/25 08:23:07;;;;;;;14.73;4.40;;;24.00;76.10;;;;;;5035953;28;20140;-68
2023/05/25 08:25:33;;;;;;;15.13;4.28;;;;;;;;;;5053888;28;20076;-69
2023/05/25 08:27:58;;;;;;;15.85;4.80;;;23.70;75.90;;;;;;5054770;28;20062;-70
2023/05/25 08:30:24;;;;;;;13.73;4.55;;;23.70;76.00;;;;;;5074015;28;20127;-69
2023/05/25 08:32:50;;;;;;;12.98;3.97;;;23.70;76.00;;;;;;5073647;28;20132;-68
2023/05/25 08:35:16;;;;;;;17.35;4.95;;;23.70;75.90;;;;;;5073423;28;20052;-70
2023/05/25 08:37:42;;;;;;;13.60;4.60;;;23.50;71.90;;;;;;5062489;28;20127;-67
2023/05/25 08:40:15;;;;;;;15.95;5.15;;;23.30;75.60;;;;;;5069572;28;20474;-68
2023/05/25 08:42:42;;;;;;;11.45;4.45;;;23.70;75.80;;;;;;5039613;28;20048;-68
2023/05/25 08:45:08;;;;;;;16.05;4.45;;;23.40;75.70;;;;;;5073455;28;20173;-67
2023/05/25 08:47:34;;;;;;;17.95;4.57;;;23.50;75.90;;;;;;5064389;28;20073;-61
2023/05/25 08:50:02;;;;;;;14.13;4.55;;;23.50;75.80;;;;;;5045749;28;20068;-68
2023/05/25 08:52:28;;;;;;;13.27;4.13;;;23.30;75.60;;;;;;5054632;28;20101;-61
2023/05/25 08:54:54;;;;;;;16.05;4.80;;;23.60;75.80;;;;;;5053284;28;20518;-61
2023/05/25 08:57:28;;;;;;;16.65;4.70;;;23.50;75.70;;;;;;5046891;28;20249;-63
2023/05/25 09:00:03;;;;;;;11.75;4.40;;;23.30;75.50;;;;;;5059603;28;20124;-63
2023/05/25 09:02:35;;;;;;;22.35;4.57;;;23.40;75.60;;;;;;5053053;28;20049;-65
2023/05/25 09:05:00;;;;;;;15.13;4.53;;;23.40;75.60;;;;;;5061228;28;20064;-61
2023/05/25 09:07:29;;;;;;;18.50;4.72;;;23.50;75.80;;;;;;5054436;28;20061;-61
2023/05/25 09:09:55;;;;;;;16.15;4.82;;;23.40;75.70;;;;;;5071707;28;20393;-64
2023/05/25 09:12:24;;;;;;;12.77;4.72;;;23.50;75.80;;;;;;5055100;28;20041;-65
2023/05/25 09:14:49;;;;;;;14.48;4.53;;;23.60;75.80;;;;;;5053911;28;20056;-66
2023/05/25 09:17:16;;;;;;;27.45;4.38;;;23.40;75.60;;;;;;5050827;28;20060;-62
2023/05/25 09:19:42;;;;;;;15.93;5.03;;;;;;;;;;5054841;28;20080;-64
2023/05/25 09:22:11;;;;;;;22.23;5.15;;;23.20;75.40;;;;;;5069448;28;20040;-61
2023/05/25 09:24:40;;;;;;;16.80;4.45;;;23.20;75.50;;;;;;5073069;28;20401;-62
2023/05/25 09:27:08;;;;;;;21.15;5.03;;;23.00;75.20;;;;;;5071072;28;20045;-66
2023/05/25 09:29:34;;;;;;;23.45;5.55;;;23.20;75.40;;;;;;5053895;28;20052;-65
2023/05/25 09:32:00;;;;;;;16.80;4.35;;;23.20;75.30;;;;;;5054726;28;20044;-67
2023/05/25 09:34:32;;;;;;;24.77;4.70;;;23.10;75.50;;;;;;5072942;28;20044;-66
2023/05/25 09:36:59;;;;;;;19.30;4.55;;;23.30;75.60;;;;;;5054694;28;20476;-67
2023/05/25 09:39:25;;;;;;;18.08;5.25;;;23.10;75.60;;;;;;5062254;28;20051;-65
2023/05/25 09:41:51;;;;;;;15.77;4.60;;;23.10;75.50;;;;;;5067419;28;20052;-65
2023/05/25 09:44:17;;;;;;;15.77;4.35;;;23.30;75.60;;;;;;5066030;28;20440;-65
2023/05/25 09:46:43;;;;;;;15.63;4.55;;;23.30;75.60;;;;;;5054845;28;20406;-62
2023/05/25 09:49:09;;;;;;;15.48;3.85;;;23.00;75.40;;;;;;5049131;28;20094;-61
2023/05/25 09:51:35;;;;;;;16.88;4.25;;;23.00;72.70;;;;;;5043629;28;20127;-62
2023/05/25 09:54:02;;;;;;;12.98;4.47;;;23.30;75.50;;;;;;5060327;28;20474;-62
2023/05/25 09:56:30;;;;;;;18.60;4.43;;;22.90;75.20;;;;;;5054542;28;20118;-61
2023/05/25 09:58:56;;;;;;;15.23;4.35;;;23.30;75.30;;;;;;5060321;28;20517;-62
2023/05/25 10:01:22;;;;;;;18.30;4.22;;;23.20;75.20;;;;;;5063425;28;20044;-63
2023/05/25 10:03:49;;;;;;;14.00;4.40;;;22.80;74.90;;;;;;5062114;28;20037;-61
2023/05/25 10:06:16;;;;;;;16.08;4.43;;;23.20;72.50;;;;;;5052211;28;20048;-61
2023/05/25 10:08:43;;;;;;;15.55;4.95;;;23.10;75.10;;;;;;5052477;28;20081;-61
2023/05/25 10:11:09;;;;;;;16.52;4.65;;;22.80;75.00;;;;;;5054757;28;20045;-62
2023/05/25 10:13:35;;;;;;;15.23;4.32;;;23.00;75.10;;;;;;5040985;28;20410;-62
2023/05/25 10:16:00;;;;;;;11.85;4.20;;;22.80;75.00;;;;;;5037985;28;20053;-66
2023/05/25 10:18:28;;;;;;;14.32;4.47;;;23.10;74.30;;;;;;5053910;28;20045;-66
2023/05/25 10:21:01;;;;;;;15.07;4.47;;;22.80;75.00;;;;;;5055046;28;20163;-66
2023/05/25 10:23:40;;;;;;;10.18;4.55;;;23.00;73.20;;;;;;5052781;28;20398;-61
2023/05/25 10:26:06;;;;;;;12.45;4.07;;;22.80;72.60;;;;;;5021968;28;20052;-64
2023/05/25 10:28:35;;;;;;;15.50;4.45;;;23.10;75.10;;;;;;5038209;28;20044;-65
2023/05/25 10:31:02;;;;;;;17.77;4.60;;;22.80;72.20;;;;;;5036292;28;20542;-67
2023/05/25 10:33:28;;;;;;;16.50;5.53;;;22.90;75.00;;;;;;5039406;28;20120;-61
2023/05/25 10:35:54;;;;;;;17.38;5.15;;;22.60;74.90;;;;;;5036784;28;20570;-64
2023/05/25 10:38:21;;;;;;;15.10;4.47;;;22.70;74.70;;;;;;5056276;28;20041;-62
2023/05/25 10:40:47;;;;;;;15.27;4.40;;;22.80;74.90;;;;;;5054597;28;20517;-64
2023/05/25 10:43:13;;;;;;;23.45;5.22;;;22.90;75.00;;;;;;5051678;28;20044;-61
2023/05/25 10:45:40;;;;;;;15.57;4.30;;;22.90;75.00;;;;;;5048636;28;20084;-61
2023/05/25 10:48:06;;;;;;;13.77;5.00;;;22.80;75.00;;;;;;5021762;28;20494;-61
2023/05/25 10:50:34;;;;;;;17.73;5.00;;;22.80;75.00;;;;;;5054743;28;20045;-62
2023/05/25 10:53:06;;;;;;;15.40;4.75;;;22.80;75.00;;;;;;5045555;28;20048;-61
2023/05/25 10:56:04;;;;;;;13.80;4.50;;;23.00;75.20;;;;;;5040098;28;20107;-62
2023/05/25 10:58:30;;;;;;;14.43;4.47;;;23.00;75.30;;;;;;5024190;28;20065;-62
2023/05/25 11:00:57;;;;;;;14.38;4.63;;;22.80;75.10;;;;;;5035434;28;20055;-61
2023/05/25 11:03:42;;;;;;;14.18;4.43;;;22.80;71.80;;;;;;5037813;28;20115;-62
2023/05/25 11:06:09;;;;;;;20.95;4.93;;;;;;;;;;5064405;28;20044;-63
2023/05/25 11:08:51;;;;;;;17.48;4.78;;;22.80;75.00;;;;;;5037835;28;20469;-69
2023/05/25 11:11:17;;;;;;;16.48;4.78;;;22.80;75.00;;;;;;5034135;28;20454;-70
2023/05/25 11:13:48;;;;;;;16.92;5.15;;;23.00;75.10;;;;;;5040588;28;20120;-68
2023/05/25 11:16:26;;;;;;;17.38;4.80;;;22.90;75.00;;;;;;5064822;28;20065;-61
2023/05/25 11:18:58;;;;;;;15.30;4.47;;;22.90;75.10;;;;;;5064601;28;20379;-62
2023/05/25 11:21:27;;;;;;;14.00;4.85;;;22.90;75.10;;;;;;5074315;28;20052;-61
2023/05/25 11:23:57;;;;;;;15.32;4.80;;;23.00;75.20;;;;;;5074913;28;20063;-61
2023/05/25 11:26:28;;;;;;;19.13;5.60;;;22.70;74.90;;;;;;5065349;28;20045;-61
2023/05/25 11:28:54;;;;;;;16.65;4.68;;;;;;;;;;5055563;28;20044;-63
2023/05/25 11:31:32;;;;;;;18.65;4.32;;;22.70;74.90;;;;;;5068410;28;20394;-62
2023/05/25 11:34:03;;;;;;;16.13;4.10;;;22.90;75.10;;;;;;5055116;28;20036;-63
2023/05/25 11:36:32;;;;;;;13.57;4.35;;;22.60;74.80;;;;;;5054945;28;20092;-62
2023/05/25 11:39:02;;;;;;;13.48;4.60;;;22.90;75.00;;;;;;5068668;28;20048;-62
2023/05/25 11:41:28;;;;;;;17.15;5.32;;;22.80;74.90;;;;;;5055161;28;20039;-61
2023/05/25 11:43:54;;;;;;;13.40;4.72;;;22.80;72.90;;;;;;5066105;28;20561;-62
2023/05/25 11:46:20;;;;;;;10.70;4.10;;;22.80;74.90;;;;;;5068219;28;20414;-62
2023/05/25 11:48:50;;;;;;;21.52;5.32;;;22.90;75.00;;;;;;5060386;28;20033;-62
2023/05/25 11:51:17;;;;;;;26.90;5.43;;;23.00;74.90;;;;;;5063975;28;20079;-61
2023/05/25 11:53:43;;;;;;;22.13;5.28;;;22.70;75.00;;;;;;5061656;28;20084;-61
2023/05/25 11:56:13;;;;;;;22.40;5.43;;;22.80;71.90;;;;;;5051912;28;20443;-64
2023/05/25 11:58:39;;;;;;;15.63;4.32;;;23.10;72.30;;;;;;5064892;28;20134;-67
2023/05/25 12:01:15;;;;;;;20.55;4.45;;;23.00;74.90;;;;;;5045722;28;20060;-67
2023/05/25 12:03:41;;;;;;;13.73;4.57;;;22.90;74.80;;;;;;5060779;28;20483;-67
2023/05/25 12:06:07;;;;;;;15.27;5.05;;;23.10;75.00;;;;;;5069956;28;20482;-67
2023/05/25 12:08:33;;;;;;;15.52;4.60;;;23.00;71.20;;;;;;5055007;28;20041;-67
2023/05/25 12:11:02;;;;;;;23.70;4.72;;;22.90;74.80;;;;;;5047370;28;20041;-67
2023/05/25 12:13:29;;;;;;;15.68;4.68;;;23.00;71.70;;;;;;5067045;28;20051;-66
2023/05/25 12:15:59;;;;;;;15.45;4.35;;;23.10;74.90;;;;;;5067928;28;20060;-62
2023/05/25 12:18:27;;;;;;;17.05;4.82;;;23.00;74.90;;;;;;5065905;28;20119;-61
2023/05/25 12:20:54;;;;;;;15.32;4.40;;;23.00;74.90;;;;;;5044150;28;20119;-62
2023/05/25 12:23:21;;;;;;;18.45;4.93;;;;;;;;;;5052848;28;20045;-63
2023/05/25 12:25:48;;;;;;;15.93;5.32;;;;;;;;;;5053867;28;20040;-65
2023/05/25 12:28:14;;;;;;;17.35;4.80;;;;;;;;;;5036834;28;20430;-62
2023/05/25 12:30:40;;;;;;;18.50;5.32;;;22.80;74.90;;;;;;5038067;28;20406;-63
2023/05/25 12:33:06;;;;;;;15.95;5.32;;;22.80;75.10;;;;;;5054334;28;20053;-68
2023/05/25 12:35:48;;;;;;;16.60;4.70;;;22.90;74.10;;;;;;5053768;28;20049;-73
2023/05/25 12:38:19;;;;;;;14.75;4.55;;;22.60;75.10;;;;;;5054820;28;20122;-73
2023/05/25 12:40:45;;;;;;;15.93;5.03;;;22.60;75.20;;;;;;5062495;28;20402;-73
2023/05/25 12:43:10;;;;;;;16.15;4.45;;;22.80;75.20;;;;;;5068578;28;20040;-72
2023/05/25 12:45:40;;;;;;;20.08;6.22;;;22.80;73.60;;;;;;5069993;28;20044;-72
2023/05/25 12:48:06;;;;;;;15.35;4.93;;;22.60;75.10;;;;;;5065340;28;20059;-73
2023/05/25 12:50:32;;;;;;;15.35;4.57;;;22.60;75.10;;;;;;5065384;28;20119;-72
2023/05/25 12:53:03;;;;;;;18.90;5.68;;;23.00;75.30;;;;;;5056780;28;20519;-73
2023/05/25 12:55:30;;;;;;;18.30;4.95;;;22.80;75.10;;;;;;5066049;28;20062;-73